createdAt,value
2023-02-13T00:00:50.006Z,7.3
2023-02-13T00:02:53.108Z,7.4
2023-02-13T00:06:59.411Z,7.4
2023-02-13T00:13:11.841Z,7.3
2023-02-13T00:15:14.959Z,7.3
2023-02-13T00:17:18.046Z,7.3
2023-02-13T00:21:45.106Z,7.3
2023-02-13T00:30:00.752Z,7.4
2023-02-13T00:34:06.969Z,7.3
2023-02-13T00:36:10.026Z,7.3
2023-02-13T00:38:13.142Z,7.3
2023-02-13T00:40:19.426Z,7.2
2023-02-13T00:42:22.585Z,7.3
2023-02-13T00:44:25.681Z,7.4
2023-02-13T00:46:28.920Z,7.3
2023-02-13T00:48:31.864Z,7.3
2023-02-13T00:50:34.964Z,7.3
2023-02-13T00:52:38.063Z,7.3
2023-02-13T00:54:44.364Z,7.2
2023-02-13T00:56:47.453Z,7.2
2023-02-13T00:58:50.548Z,7.2
2023-02-13T01:00:53.657Z,7.3
2023-02-13T01:02:56.778Z,7.2
2023-02-13T01:04:59.862Z,7.3
2023-02-13T01:07:03.002Z,7.2
2023-02-13T01:09:09.260Z,7.3
2023-02-13T01:11:12.369Z,7.3
2023-02-13T01:13:15.468Z,7.3
2023-02-13T01:14:18.629Z,7.3
2023-02-13T01:16:21.781Z,7.2
2023-02-13T01:22:34.227Z,7.2
2023-02-13T01:26:40.424Z,7.2
2023-02-13T01:28:43.531Z,7.2
2023-02-13T01:30:46.653Z,7.1
2023-02-13T01:32:49.784Z,7.1
2023-02-13T01:34:52.834Z,7
2023-02-13T01:36:59.146Z,7
2023-02-13T01:39:02.294Z,7
2023-02-13T01:41:05.345Z,7.1
2023-02-13T01:43:08.435Z,7.1
2023-02-13T01:45:11.557Z,7
2023-02-13T01:49:17.746Z,7.2
2023-02-13T01:51:24.027Z,7.2
2023-02-13T01:53:27.119Z,7.1
2023-02-13T01:55:30.232Z,7
2023-02-13T01:57:33.331Z,7
2023-02-13T01:59:36.428Z,7.1
2023-02-13T02:01:39.673Z,7.2
2023-02-13T02:03:42.602Z,7.1
2023-02-13T02:05:48.889Z,7.1
2023-02-13T02:07:52.011Z,7.1
2023-02-13T02:09:55.094Z,7.1
2023-02-13T02:13:01.362Z,7.1
2023-02-13T02:15:04.444Z,7.1
2023-02-13T02:17:07.551Z,7
2023-02-13T02:23:20.071Z,6.9
2023-02-13T02:29:29.369Z,7
2023-02-13T02:33:38.798Z,7
2023-02-13T02:41:51.188Z,7
2023-02-13T02:43:54.304Z,7
2023-02-13T02:45:57.389Z,7
2023-02-13T02:48:03.686Z,7.1
2023-02-13T02:50:06.784Z,7
2023-02-13T02:52:11.464Z,7.1
2023-02-13T02:54:14.530Z,7
2023-02-13T02:56:17.641Z,7
2023-02-13T02:58:20.746Z,7
2023-02-13T03:00:23.890Z,7
2023-02-13T03:02:30.151Z,7
2023-02-13T03:04:33.290Z,7
2023-02-13T03:06:36.341Z,7
2023-02-13T03:07:39.464Z,7
2023-02-13T03:13:48.773Z,7.1
2023-02-13T03:20:01.276Z,7.1
2023-02-13T03:26:10.599Z,7
2023-02-13T03:28:13.726Z,6.9
2023-02-13T03:30:19.971Z,7
2023-02-13T03:32:23.098Z,7
2023-02-13T03:36:29.296Z,7
2023-02-13T03:38:32.417Z,7
2023-02-13T03:40:35.492Z,6.9
2023-02-13T03:42:38.582Z,7
2023-02-13T03:44:44.866Z,6.9
2023-02-13T03:46:47.974Z,6.9
2023-02-13T03:48:51.125Z,6.9
2023-02-13T03:50:54.210Z,6.9
2023-02-13T03:52:57.290Z,7
2023-02-13T03:55:00.389Z,6.9
2023-02-13T03:57:03.486Z,6.9
2023-02-13T03:59:09.788Z,6.9
2023-02-13T04:01:12.919Z,7
2023-02-13T04:03:15.993Z,6.9
2023-02-13T04:07:49.586Z,6.9
2023-02-13T04:11:58.989Z,6.9
2023-02-13T04:14:02.089Z,6.8
2023-02-13T04:16:05.179Z,6.9
2023-02-13T04:18:10.375Z,6.9
2023-02-13T04:20:11.390Z,7
2023-02-13T04:22:14.494Z,6.9
2023-02-13T04:26:23.897Z,6.9
2023-02-13T04:28:27.054Z,7
2023-02-13T04:30:30.251Z,6.9
2023-02-13T04:32:33.202Z,6.9
2023-02-13T04:34:36.301Z,6.9
2023-02-13T04:36:39.407Z,7
2023-02-13T04:38:42.504Z,6.9
2023-02-13T04:40:48.802Z,6.9
2023-02-13T04:42:51.915Z,6.9
2023-02-13T04:44:55.019Z,6.9
2023-02-13T04:46:58.135Z,7
2023-02-13T04:49:01.209Z,6.9
2023-02-13T04:51:04.327Z,6.9
2023-02-13T04:53:07.419Z,6.9
2023-02-13T04:55:13.717Z,6.9
2023-02-13T04:57:16.815Z,6.9
2023-02-13T04:59:19.910Z,6.9
2023-02-13T05:00:23.067Z,6.8
2023-02-13T05:02:26.158Z,6.9
2023-02-13T05:04:29.253Z,6.9
2023-02-13T05:06:32.362Z,6.9
2023-02-13T05:08:38.639Z,6.9
2023-02-13T05:10:41.754Z,6.8
2023-02-13T05:12:44.870Z,6.9
2023-02-13T05:14:47.937Z,6.9
2023-02-13T05:16:51.048Z,6.9
2023-02-13T05:18:54.166Z,6.9
2023-02-13T05:20:57.612Z,6.9
2023-02-13T05:23:03.572Z,7
2023-02-13T05:25:06.721Z,7
2023-02-13T05:29:12.866Z,7
2023-02-13T05:33:19.073Z,7
2023-02-13T05:37:28.515Z,7.1
2023-02-13T05:39:31.571Z,7
2023-02-13T05:41:34.670Z,7
2023-02-13T05:49:47.083Z,7.1
2023-02-13T05:51:53.385Z,7
2023-02-13T05:53:56.445Z,7
2023-02-13T05:55:59.556Z,7
2023-02-13T05:57:02.691Z,6.9
2023-02-13T05:59:05.804Z,7
2023-02-13T06:01:08.912Z,6.9
2023-02-13T06:03:12.004Z,7.1
2023-02-13T06:05:18.314Z,7
2023-02-13T06:07:21.416Z,7
2023-02-13T06:09:24.478Z,7
2023-02-13T06:11:27.634Z,7
2023-02-13T06:13:30.684Z,7.1
2023-02-13T06:15:33.779Z,7
2023-02-13T06:17:36.935Z,7
2023-02-13T06:19:43.197Z,7.1
2023-02-13T06:21:46.302Z,7.1
2023-02-13T06:23:49.405Z,7
2023-02-13T06:25:52.516Z,7
2023-02-13T06:27:55.617Z,7
2023-02-13T06:29:58.731Z,7
2023-02-13T06:32:01.919Z,7.1
2023-02-13T06:34:08.127Z,7
2023-02-13T06:36:11.179Z,7
2023-02-13T06:38:14.294Z,7
2023-02-13T06:40:17.375Z,7.1
2023-02-13T06:42:20.510Z,7.1
2023-02-13T06:44:23.600Z,7.1
2023-02-13T06:46:26.721Z,7.1
2023-02-13T06:48:32.975Z,7.1
2023-02-13T06:50:36.071Z,7
2023-02-13T06:52:39.181Z,7.2
2023-02-13T06:53:42.346Z,7.1
2023-02-13T06:55:45.430Z,7.1
2023-02-13T06:57:48.563Z,7.1
2023-02-13T06:59:51.638Z,7.1
2023-02-13T07:01:57.918Z,7.1
2023-02-13T07:04:01.045Z,7.1
2023-02-13T07:06:04.163Z,7.1
2023-02-13T07:08:07.257Z,7.1
2023-02-13T07:10:10.362Z,7.1
2023-02-13T07:12:13.466Z,7.1
2023-02-13T07:14:16.538Z,7.1
2023-02-13T07:16:22.948Z,7.1
2023-02-13T07:18:25.935Z,7.1
2023-02-13T07:20:29.105Z,7
2023-02-13T07:22:32.146Z,7.1
2023-02-13T07:24:35.253Z,7.1
2023-02-13T07:26:38.372Z,7.1
2023-02-13T07:28:41.510Z,7
2023-02-13T07:32:50.824Z,7.1
2023-02-13T07:39:00.151Z,7.2
2023-02-13T07:41:03.254Z,7.1
2023-02-13T07:45:12.617Z,7.2
2023-02-13T07:49:18.793Z,7.2
2023-02-13T07:51:48.608Z,7.3
2023-02-13T07:53:51.719Z,7.3
2023-02-13T07:58:01.119Z,7.3
2023-02-13T08:00:04.242Z,7.2
2023-02-13T08:02:07.462Z,7.3
2023-02-13T08:04:10.464Z,7.2
2023-02-13T08:06:13.530Z,7.3
2023-02-13T08:08:16.639Z,7.3
2023-02-13T08:10:19.745Z,7.4
2023-02-13T08:12:26.039Z,7.3
2023-02-13T08:14:29.156Z,7.4
2023-02-13T08:16:32.310Z,7.5
2023-02-13T08:18:35.357Z,7.4
2023-02-13T08:20:38.459Z,7.5
2023-02-13T08:22:41.560Z,7.5
2023-02-13T08:24:44.733Z,7.7
2023-02-13T08:26:50.958Z,7.6
2023-02-13T08:28:54.072Z,7.6
2023-02-13T08:30:57.232Z,7.6
2023-02-13T08:33:00.263Z,7.7
2023-02-13T08:35:03.393Z,7.7
2023-02-13T08:37:06.489Z,7.7
2023-02-13T08:39:09.579Z,7.6
2023-02-13T08:43:18.963Z,7.8
2023-02-13T08:45:22.088Z,7.7
2023-02-13T08:46:26.934Z,7.8
2023-02-13T08:48:29.903Z,7.8
2023-02-13T08:50:34.630Z,7.9
2023-02-13T08:54:42.418Z,8
2023-02-13T08:56:45.546Z,8
2023-02-13T08:58:48.631Z,8
2023-02-13T09:00:51.841Z,8.1
2023-02-13T09:07:01.144Z,8.2
2023-02-13T09:09:07.436Z,8.2
2023-02-13T09:11:10.576Z,8.2
2023-02-13T09:13:13.690Z,8.2
2023-02-13T09:17:19.909Z,8.3
2023-02-13T09:19:23.035Z,8.3
2023-02-13T09:21:26.152Z,8.4
2023-02-13T09:23:32.476Z,8.3
2023-02-13T09:25:35.592Z,8.3
2023-02-13T09:29:41.829Z,8.3
2023-02-13T09:31:45.107Z,8.3
2023-02-13T09:33:48.094Z,8.4
2023-02-13T09:35:51.193Z,8.5
2023-02-13T09:40:00.603Z,8.5
2023-02-13T09:42:03.755Z,8.5
2023-02-13T09:43:06.886Z,8.6
2023-02-13T09:45:10.034Z,8.6
2023-02-13T09:47:13.166Z,8.8
2023-02-13T09:49:16.248Z,8.8
2023-02-13T09:51:22.604Z,8.8
2023-02-13T09:55:28.833Z,8.8
2023-02-13T09:57:31.969Z,8.8
2023-02-13T10:03:41.324Z,9
2023-02-13T10:05:47.655Z,8.9
2023-02-13T10:07:50.766Z,9.1
2023-02-13T10:09:53.901Z,9
2023-02-13T10:11:57.086Z,9.1
2023-02-13T10:14:00.164Z,9
2023-02-13T10:16:03.376Z,9.1
2023-02-13T10:18:06.392Z,9.1
2023-02-13T10:20:12.718Z,9.2
2023-02-13T10:22:15.849Z,9.2
2023-02-13T10:24:18.968Z,9.2
2023-02-13T10:26:22.096Z,9.2
2023-02-13T10:28:25.254Z,9.2
2023-02-13T10:30:28.347Z,9.1
2023-02-13T10:32:31.487Z,9.2
2023-02-13T10:34:37.812Z,9.4
2023-02-13T10:36:40.940Z,9.4
2023-02-13T10:38:44.083Z,9.4
2023-02-13T10:39:47.217Z,9.4
2023-02-13T10:41:50.379Z,9.4
2023-02-13T10:43:53.486Z,9.4
2023-02-13T10:45:56.918Z,9.3
2023-02-13T10:48:02.930Z,9.4
2023-02-13T10:50:06.067Z,9.2
2023-02-13T10:52:09.203Z,9.3
2023-02-13T10:54:12.316Z,9.4
2023-02-13T10:56:15.459Z,9.3
2023-02-13T10:58:18.583Z,9.4
2023-02-13T11:00:21.705Z,9.5
2023-02-13T11:02:28.045Z,9.5
2023-02-13T11:04:31.204Z,9.5
2023-02-13T11:06:34.253Z,9.6
2023-02-13T11:08:37.400Z,9.5
2023-02-13T11:10:40.542Z,9.5
2023-02-13T11:12:43.667Z,9.7
2023-02-13T11:14:46.806Z,9.6
2023-02-13T11:16:53.128Z,9.6
2023-02-13T11:18:56.278Z,9.7
2023-02-13T11:23:02.534Z,9.6
2023-02-13T11:25:05.671Z,9.4
2023-02-13T11:29:11.892Z,9.6
2023-02-13T11:35:24.494Z,9.8
2023-02-13T11:39:57.411Z,9.9
2023-02-13T11:42:00.523Z,9.9
2023-02-13T11:44:06.890Z,9.9
2023-02-13T11:46:09.986Z,9.9
2023-02-13T11:48:13.132Z,9.9
2023-02-13T11:50:16.257Z,9.9
2023-02-13T11:52:19.381Z,10
2023-02-13T11:54:22.530Z,9.9
2023-02-13T11:56:25.652Z,10
2023-02-13T11:58:32.165Z,9.8
2023-02-13T12:00:35.158Z,9.9
2023-02-13T12:02:38.353Z,9.9
2023-02-13T12:04:41.464Z,10
2023-02-13T12:06:44.592Z,10.5
2023-02-13T12:08:47.692Z,10.4
2023-02-13T12:10:50.880Z,10.6
2023-02-13T12:12:57.144Z,10.4
2023-02-13T12:15:00.314Z,10.2
2023-02-13T12:17:03.452Z,10.2
2023-02-13T12:19:06.568Z,10.2
2023-02-13T12:21:09.719Z,10.4
2023-02-13T12:23:12.866Z,10.4
2023-02-13T12:25:15.998Z,10.3
2023-02-13T12:27:22.333Z,10.5
2023-02-13T12:29:25.516Z,10.5
2023-02-13T12:32:31.787Z,10.6
2023-02-13T12:34:34.956Z,10.5
2023-02-13T12:40:47.587Z,11.1
2023-02-13T12:44:53.878Z,11.2
2023-02-13T12:46:57.027Z,10.8
2023-02-13T12:49:00.180Z,10.6
2023-02-13T12:51:03.317Z,10.9
2023-02-13T12:55:12.828Z,11.1
2023-02-13T13:01:22.338Z,12.1
2023-02-13T13:03:25.451Z,12.6
2023-02-13T13:13:43.792Z,12.4
2023-02-13T13:15:46.856Z,13.4
2023-02-13T13:17:49.902Z,14.3
2023-02-13T13:19:52.955Z,14.5
2023-02-13T13:21:55.984Z,14.1
2023-02-13T13:24:02.148Z,14.2
2023-02-13T13:26:05.173Z,14.4
2023-02-13T13:41:32.620Z,14.6
2023-02-13T13:43:35.685Z,13.8
2023-02-13T13:45:38.725Z,14.1
2023-02-13T13:47:41.745Z,14.2
2023-02-13T13:49:44.812Z,13.9
2023-02-13T13:51:50.923Z,14.7
2023-02-13T13:53:53.954Z,14.3
2023-02-13T13:55:56.976Z,14.2
2023-02-13T13:58:00.022Z,14.7
2023-02-13T14:00:03.053Z,14.9
2023-02-13T14:02:06.137Z,14.5
2023-02-13T14:04:09.139Z,14.4
2023-02-13T14:06:15.300Z,14.7
2023-02-13T14:08:18.310Z,14.7
2023-02-13T14:10:21.380Z,15
2023-02-13T14:12:24.390Z,14.7
2023-02-13T14:14:27.435Z,13.4
2023-02-13T14:16:30.441Z,12.4
2023-02-13T14:18:33.489Z,11.8
2023-02-13T14:20:39.628Z,11.7
2023-02-13T14:22:42.663Z,11.5
2023-02-13T14:24:45.702Z,11.4
2023-02-13T14:25:48.796Z,11.4
2023-02-13T14:27:51.837Z,11.4
2023-02-13T14:29:54.920Z,11.3
2023-02-13T14:31:58.052Z,11.2
2023-02-13T14:34:04.081Z,11.2
2023-02-13T14:36:07.127Z,11.1
2023-02-13T14:38:10.172Z,11.1
2023-02-13T14:40:13.212Z,11.2
2023-02-13T14:42:17.988Z,11
2023-02-13T14:46:23.903Z,11
2023-02-13T15:02:55.159Z,12
2023-02-13T15:07:01.453Z,12.4
2023-02-13T15:09:04.621Z,12.9
2023-02-13T15:11:07.760Z,13.1
2023-02-13T15:17:20.415Z,14
2023-02-13T15:19:23.580Z,13.5
2023-02-13T15:21:26.716Z,12.5
2023-02-13T15:23:56.452Z,11.1
2023-02-13T15:28:02.622Z,10.8
2023-02-13T15:30:08.930Z,10.9
2023-02-13T15:32:12.169Z,11.2
2023-02-13T15:34:15.186Z,12.6
2023-02-13T15:38:21.483Z,13.7
2023-02-13T15:40:24.650Z,13.6
2023-02-13T15:44:34.153Z,11.1
2023-02-13T15:50:43.606Z,10.5
2023-02-13T15:54:49.900Z,10.4
2023-02-13T16:03:05.753Z,10.2
2023-02-13T16:05:08.835Z,10.2
2023-02-13T16:09:15.115Z,10.1
2023-02-13T16:11:18.281Z,10.1
2023-02-13T16:13:24.606Z,10
2023-02-13T16:18:34.034Z,10
2023-02-13T16:20:37.333Z,9.9
2023-02-13T16:22:40.290Z,10
2023-02-13T16:24:43.430Z,9.8
2023-02-13T16:26:49.788Z,9.7
2023-02-13T16:28:52.892Z,9.7
2023-02-13T16:32:59.163Z,9.7
2023-02-13T16:37:05.403Z,9.7
2023-02-13T16:39:08.550Z,9.4
2023-02-13T16:41:14.888Z,9.4
2023-02-13T16:43:18.036Z,9.4
2023-02-13T16:47:24.272Z,9.3
2023-02-13T16:49:27.401Z,9.3
2023-02-13T16:51:30.521Z,9.2
2023-02-13T16:53:34.394Z,9.2
2023-02-13T16:55:39.961Z,9.1
2023-02-13T16:57:43.096Z,9
2023-02-13T16:59:46.196Z,8.4
2023-02-13T17:01:49.324Z,8.9
2023-02-13T17:03:52.467Z,8.9
2023-02-13T17:05:55.597Z,8.8
2023-02-13T17:07:58.695Z,8.7
2023-02-13T17:10:05.037Z,8.7
2023-02-13T17:12:08.160Z,8.8
2023-02-13T17:17:17.581Z,8.7
2023-02-13T17:19:20.641Z,8.7
2023-02-13T17:21:23.771Z,8.6
2023-02-13T17:23:30.116Z,8.5
2023-02-13T17:25:33.241Z,8.4
2023-02-13T17:27:36.378Z,8.3
2023-02-13T17:29:39.473Z,8.4
2023-02-13T17:33:45.713Z,8.3
2023-02-13T17:35:48.843Z,8.1
2023-02-13T17:37:55.143Z,8.2
2023-02-13T17:39:58.258Z,8.3
2023-02-13T17:42:01.365Z,8.2
2023-02-13T17:44:04.488Z,8.2
2023-02-13T17:46:07.698Z,8.1
2023-02-13T17:48:10.717Z,8.1
2023-02-13T17:54:23.280Z,8.1
2023-02-13T18:04:38.892Z,7.9
2023-02-13T18:06:45.189Z,7.7
2023-02-13T18:08:48.315Z,7.7
2023-02-13T18:10:51.654Z,7.8
2023-02-13T18:12:05.091Z,7.6
2023-02-13T18:13:57.912Z,7.5
2023-02-13T18:16:01.037Z,7.4
2023-02-13T18:18:04.130Z,7.4
2023-02-13T18:20:10.458Z,7.2
2023-02-13T18:22:13.574Z,7.3
2023-02-13T18:24:16.667Z,7.2
2023-02-13T18:26:19.750Z,7.2
2023-02-13T18:28:22.866Z,7.1
2023-02-13T18:34:35.390Z,6.8
2023-02-13T18:38:41.550Z,6.8
2023-02-13T18:51:03.326Z,6.5
2023-02-13T18:53:06.420Z,6.4
2023-02-13T18:57:12.619Z,6.3
2023-02-13T18:59:15.702Z,6.4
2023-02-13T19:03:25.079Z,6.3
2023-02-13T19:05:28.178Z,6.3
2023-02-13T19:10:01.101Z,6.3
2023-02-13T19:12:04.177Z,6.1
2023-02-13T19:14:07.246Z,6.2
2023-02-13T19:16:13.598Z,5.9
2023-02-13T19:18:16.651Z,6
2023-02-13T19:20:19.732Z,6
2023-02-13T19:22:22.822Z,5.9
2023-02-13T19:24:25.887Z,5.9
2023-02-13T19:26:28.972Z,5.8
2023-02-13T19:28:32.042Z,5.8
2023-02-13T19:42:56.734Z,5.6
2023-02-13T19:47:06.068Z,5.5
2023-02-13T19:49:09.147Z,5.4
2023-02-13T19:51:12.183Z,5.3
2023-02-13T19:53:15.263Z,5.3
2023-02-13T19:59:27.680Z,5.1
2023-02-13T20:01:30.794Z,5.1
2023-02-13T20:03:33.809Z,5.1
2023-02-13T20:04:36.944Z,5.2
2023-02-13T20:06:40.042Z,5
2023-02-13T20:08:43.209Z,5
2023-02-13T20:10:46.118Z,5.1
2023-02-13T20:12:52.430Z,5
2023-02-13T20:14:55.477Z,5.1
2023-02-13T20:16:58.525Z,4.9
2023-02-13T20:19:01.579Z,5
2023-02-13T20:27:17.011Z,5
2023-02-13T20:33:26.169Z,4.8
2023-02-13T20:35:29.222Z,4.9
2023-02-13T20:37:33.843Z,4.9
2023-02-13T20:39:36.843Z,4.9
2023-02-13T20:43:46.167Z,4.8
2023-02-13T20:45:49.248Z,4.7
2023-02-13T20:47:52.255Z,4.7
2023-02-13T20:49:55.289Z,4.6
2023-02-13T20:51:58.324Z,4.6
2023-02-13T20:54:01.365Z,4.5
2023-02-13T20:56:07.655Z,4.4
2023-02-13T20:58:10.882Z,4.5
2023-02-13T21:00:13.738Z,4.5
2023-02-13T21:01:16.910Z,4.5
2023-02-13T21:03:19.895Z,4.4
2023-02-13T21:05:23.732Z,4.5
2023-02-13T21:07:26.800Z,4.6
2023-02-13T21:09:33.043Z,4.5
2023-02-13T21:11:36.105Z,4.5
2023-02-13T21:13:39.157Z,4.5
2023-02-13T21:15:42.196Z,4.4
2023-02-13T21:17:45.248Z,4.4
2023-02-13T21:19:48.277Z,4.3
2023-02-13T21:21:51.333Z,4.2
2023-02-13T21:23:57.570Z,4.2
2023-02-13T21:26:00.627Z,4.1
2023-02-13T21:28:03.656Z,4.2
2023-02-13T21:30:06.718Z,4.1
2023-02-13T21:32:09.801Z,4.2
2023-02-13T21:34:12.773Z,4.2
2023-02-13T21:40:25.094Z,4.1
2023-02-13T21:42:28.123Z,4.1
2023-02-13T21:44:31.151Z,4.1
2023-02-13T21:46:34.212Z,4.1
2023-02-13T21:48:37.236Z,4.1
2023-02-13T21:50:40.274Z,4
2023-02-13T21:52:46.495Z,3.9
2023-02-13T21:54:49.544Z,4
2023-02-13T21:56:52.586Z,3.9
2023-02-13T21:57:55.708Z,4
2023-02-13T21:59:58.744Z,4
2023-02-13T22:02:02.073Z,3.8
2023-02-13T22:04:04.797Z,3.9
2023-02-13T22:08:14.051Z,3.8
2023-02-13T22:10:17.107Z,3.8
2023-02-13T22:12:20.144Z,3.8
2023-02-13T22:16:26.231Z,3.7
2023-02-13T22:20:35.454Z,3.7
2023-02-13T22:26:44.475Z,3.6
2023-02-13T22:34:59.763Z,3.6
2023-02-13T22:37:02.845Z,3.6
2023-02-13T22:39:05.797Z,3.5
2023-02-13T22:41:08.803Z,3.5
2023-02-13T22:43:11.833Z,3.5
2023-02-13T22:45:14.855Z,3.5
2023-02-13T22:47:17.885Z,3.5
2023-02-13T22:49:24.080Z,3.3
2023-02-13T22:51:27.117Z,3.3
2023-02-13T22:53:30.131Z,3.3
2023-02-13T22:56:00.027Z,3.3
2023-02-13T22:58:03.015Z,3.2
2023-02-13T23:00:06.058Z,3.2
2023-02-13T23:02:12.360Z,3.2
2023-02-13T23:04:15.361Z,3.2
2023-02-13T23:06:18.309Z,3.3
2023-02-13T23:08:21.302Z,3.3
2023-02-13T23:10:24.309Z,3.2
2023-02-13T23:12:27.319Z,3.3
2023-02-13T23:16:36.555Z,3.2
2023-02-13T23:22:45.585Z,3.3
2023-02-13T23:28:54.608Z,3.1
2023-02-13T23:31:01.182Z,3
2023-02-13T23:33:03.830Z,2.9
2023-02-13T23:35:06.849Z,3
2023-02-13T23:41:15.888Z,3
2023-02-13T23:49:31.081Z,3
2023-02-13T23:50:34.192Z,3
2023-02-13T23:54:40.285Z,2.9
2023-02-13T23:56:43.297Z,2.9
2023-02-13T23:58:49.512Z,2.9
